createdAt,value
2018-08-10T00:01:49.213Z,20.10
2018-08-10T00:04:17.948Z,20.30
2018-08-10T00:06:46.639Z,20.40
2018-08-10T00:09:15.331Z,20.50
2018-08-10T00:11:43.944Z,20.50
2018-08-10T00:14:12.607Z,20.60
2018-08-10T00:16:41.392Z,20.70
2018-08-10T00:19:10.040Z,20.70
2018-08-10T00:21:38.630Z,20.60
2018-08-10T00:24:07.379Z,20.60
2018-08-10T00:26:36.009Z,20.60
2018-08-10T00:29:04.713Z,20.50
2018-08-10T00:31:33.384Z,20.50
2018-08-10T00:34:02.051Z,20.50
2018-08-10T00:36:30.605Z,20.50
2018-08-10T00:38:59.417Z,20.40
2018-08-10T00:41:28.092Z,20.40
2018-08-10T00:43:56.760Z,20.50
2018-08-10T00:46:25.298Z,20.50
2018-08-10T00:48:53.951Z,20.50
2018-08-10T00:51:22.542Z,20.50
2018-08-10T00:53:51.212Z,20.50
2018-08-10T00:56:19.809Z,20.50
2018-08-10T00:58:48.495Z,20.50
2018-08-10T01:01:17.123Z,20.40
2018-08-10T01:03:45.727Z,20.40
2018-08-10T01:06:25.266Z,20.40
2018-08-10T01:08:53.948Z,20.40
2018-08-10T01:11:22.607Z,20.30
2018-08-10T01:13:51.248Z,20.30
2018-08-10T01:16:19.865Z,20.30
2018-08-10T01:18:48.502Z,20.20
2018-08-10T01:21:17.162Z,20.20
2018-08-10T01:23:45.841Z,20.20
2018-08-10T01:26:14.493Z,20.10
2018-08-10T01:28:43.282Z,20.00
2018-08-10T01:31:11.899Z,19.90
2018-08-10T01:33:40.714Z,19.80
2018-08-10T01:36:09.379Z,19.70
2018-08-10T01:38:37.993Z,19.60
2018-08-10T01:41:06.609Z,19.50
2018-08-10T01:43:35.197Z,19.40
2018-08-10T01:46:03.810Z,19.40
2018-08-10T01:48:32.385Z,19.30
2018-08-10T01:51:00.949Z,19.30
2018-08-10T01:53:29.551Z,19.30
2018-08-10T01:55:58.127Z,19.30
2018-08-10T01:58:26.815Z,19.30
2018-08-10T02:00:55.333Z,19.20
2018-08-10T02:03:24.023Z,19.10
2018-08-10T02:05:52.635Z,19.10
2018-08-10T02:08:21.279Z,19.00
2018-08-10T02:10:49.869Z,18.90
2018-08-10T02:13:18.477Z,18.90
2018-08-10T02:15:47.080Z,18.80
2018-08-10T02:18:15.721Z,18.80
2018-08-10T02:20:44.359Z,18.70
2018-08-10T02:23:12.945Z,18.60
2018-08-10T02:25:41.545Z,18.60
2018-08-10T02:28:10.076Z,18.50
2018-08-10T02:30:38.687Z,18.40
2018-08-10T02:33:07.377Z,18.40
2018-08-10T02:35:36.022Z,18.40
2018-08-10T02:38:04.652Z,18.40
2018-08-10T02:40:33.291Z,18.40
2018-08-10T02:43:01.830Z,18.40
2018-08-10T02:45:30.494Z,18.40
2018-08-10T02:47:59.115Z,18.40
2018-08-10T02:50:27.738Z,18.40
2018-08-10T02:52:56.413Z,18.40
2018-08-10T02:55:25.113Z,18.30
2018-08-10T02:57:53.692Z,18.30
2018-08-10T03:00:22.360Z,18.30
2018-08-10T03:02:50.940Z,18.20
2018-08-10T03:05:19.531Z,18.20
2018-08-10T03:07:48.145Z,18.20
2018-08-10T03:10:16.875Z,18.20
2018-08-10T03:12:45.437Z,18.20
2018-08-10T03:15:15.501Z,18.10
2018-08-10T03:17:44.721Z,18.10
2018-08-10T03:20:13.445Z,18.10
2018-08-10T03:22:42.158Z,18.00
2018-08-10T03:25:12.309Z,18.00
2018-08-10T03:27:40.945Z,18.00
2018-08-10T03:30:11.046Z,18.00
2018-08-10T03:32:39.763Z,17.90
2018-08-10T03:35:08.426Z,17.90
2018-08-10T03:37:37.566Z,17.90
2018-08-10T03:40:08.973Z,17.80
2018-08-10T03:42:37.535Z,17.80
2018-08-10T03:45:06.229Z,17.80
2018-08-10T03:47:34.835Z,17.70
2018-08-10T03:50:03.443Z,17.70
2018-08-10T03:52:32.095Z,17.80
2018-08-10T03:55:00.748Z,17.70
2018-08-10T03:57:29.414Z,17.80
2018-08-10T03:59:58.007Z,17.80
2018-08-10T04:02:26.695Z,17.70
2018-08-10T04:04:55.226Z,17.70
2018-08-10T04:07:23.918Z,17.70
2018-08-10T04:09:52.512Z,17.70
2018-08-10T04:12:21.142Z,17.70
2018-08-10T04:14:49.700Z,17.70
2018-08-10T04:17:23.757Z,17.60
2018-08-10T04:19:53.402Z,17.50
2018-08-10T04:22:22.783Z,17.50
2018-08-10T04:24:51.699Z,17.50
2018-08-10T04:27:20.387Z,17.50
2018-08-10T04:29:49.387Z,17.40
2018-08-10T04:32:17.986Z,17.50
2018-08-10T04:34:46.693Z,17.50
2018-08-10T04:37:15.305Z,17.50
2018-08-10T04:39:43.922Z,17.50
2018-08-10T04:42:12.615Z,17.50
2018-08-10T04:44:41.269Z,17.50
2018-08-10T04:47:09.909Z,17.50
2018-08-10T04:49:38.476Z,17.50
2018-08-10T04:52:07.231Z,17.40
2018-08-10T04:54:35.910Z,17.40
2018-08-10T04:57:04.605Z,17.30
2018-08-10T04:59:33.203Z,17.30
2018-08-10T05:02:01.843Z,17.30
2018-08-10T05:04:30.421Z,17.40
2018-08-10T05:06:59.028Z,17.40
2018-08-10T05:09:27.510Z,17.30
2018-08-10T05:11:56.116Z,17.30
2018-08-10T05:14:25.779Z,17.30
2018-08-10T05:16:54.404Z,17.20
2018-08-10T05:19:23.012Z,17.30
2018-08-10T05:21:51.632Z,17.20
2018-08-10T05:24:20.273Z,17.20
2018-08-10T05:26:49.131Z,17.20
2018-08-10T05:29:17.706Z,17.20
2018-08-10T05:31:46.333Z,17.10
2018-08-10T05:34:14.844Z,17.10
2018-08-10T05:36:43.493Z,17.00
2018-08-10T05:39:12.709Z,17.10
2018-08-10T05:41:41.545Z,17.10
2018-08-10T05:44:10.259Z,17.10
2018-08-10T05:46:38.830Z,17.10
2018-08-10T05:49:07.467Z,17.10
2018-08-10T05:51:36.055Z,17.10
2018-08-10T05:54:04.669Z,17.10
2018-08-10T05:56:33.201Z,17.20
2018-08-10T05:59:01.872Z,17.30
2018-08-10T06:01:30.516Z,17.30
2018-08-10T06:03:59.233Z,17.40
2018-08-10T06:06:27.740Z,17.50
2018-08-10T06:08:56.289Z,17.60
2018-08-10T06:11:24.882Z,17.60
2018-08-10T06:13:53.521Z,17.70
2018-08-10T06:16:22.133Z,17.70
2018-08-10T06:18:51.129Z,17.60
2018-08-10T06:21:19.727Z,17.70
2018-08-10T06:23:48.342Z,17.80
2018-08-10T06:26:16.934Z,17.80
2018-08-10T06:28:45.546Z,17.80
2018-08-10T06:31:14.091Z,17.80
2018-08-10T06:33:42.707Z,17.70
2018-08-10T06:36:11.301Z,17.80
2018-08-10T06:38:39.884Z,17.70
2018-08-10T06:41:08.465Z,17.70
2018-08-10T06:43:37.050Z,17.80
2018-08-10T06:46:05.940Z,17.80
2018-08-10T06:48:34.536Z,17.90
2018-08-10T06:51:03.147Z,18.00
2018-08-10T06:53:32.085Z,18.00
2018-08-10T06:56:00.714Z,18.10
2018-08-10T06:58:29.248Z,18.30
2018-08-10T07:00:57.811Z,18.40
2018-08-10T07:03:26.470Z,18.60
2018-08-10T07:05:55.078Z,18.80
2018-08-10T07:08:23.689Z,18.90
2018-08-10T07:10:52.272Z,18.90
2018-08-10T07:13:21.057Z,19.10
2018-08-10T07:15:50.107Z,19.50
2018-08-10T07:18:18.835Z,19.70
2018-08-10T07:20:47.697Z,20.00
2018-08-10T07:23:16.600Z,20.20
2018-08-10T07:25:45.380Z,20.30
2018-08-10T07:28:14.248Z,20.50
2018-08-10T07:30:43.084Z,20.50
2018-08-10T07:33:11.958Z,20.70
2018-08-10T07:35:40.813Z,20.60
2018-08-10T07:38:09.433Z,20.50
2018-08-10T07:40:37.950Z,20.50
2018-08-10T07:43:06.533Z,20.30
2018-08-10T07:45:35.131Z,20.20
2018-08-10T07:48:03.972Z,20.20
2018-08-10T07:50:32.574Z,20.20
2018-08-10T07:53:01.153Z,20.30
2018-08-10T07:55:29.902Z,20.40
2018-08-10T07:57:58.564Z,20.60
2018-08-10T08:00:27.148Z,20.50
2018-08-10T08:02:55.772Z,20.70
2018-08-10T08:05:24.414Z,20.80
2018-08-10T08:07:52.978Z,20.90
2018-08-10T08:10:21.698Z,21.00
2018-08-10T08:12:50.287Z,21.20
2018-08-10T08:15:18.838Z,21.10
2018-08-10T08:17:47.407Z,21.00
2018-08-10T08:21:07.627Z,20.70
2018-08-10T08:23:36.367Z,20.60
2018-08-10T08:26:05.165Z,20.90
2018-08-10T08:28:34.172Z,20.90
2018-08-10T08:31:03.774Z,21.00
2018-08-10T08:33:32.434Z,21.10
2018-08-10T08:36:02.401Z,21.30
2018-08-10T08:38:42.193Z,21.40
2018-08-10T08:41:11.161Z,21.50
2018-08-10T08:46:11.081Z,21.50
2018-08-10T08:48:41.435Z,21.60
2018-08-10T08:51:18.782Z,21.70
2018-08-10T08:53:47.427Z,21.40
2018-08-10T08:56:19.154Z,21.50
2018-08-10T08:58:49.099Z,21.60
2018-08-10T09:01:18.118Z,21.70
2018-08-10T09:05:01.670Z,21.90
2018-08-10T09:07:30.871Z,22.10
2018-08-10T09:10:00.175Z,21.80
2018-08-10T09:12:28.982Z,21.80
2018-08-10T09:15:12.666Z,21.90
2018-08-10T09:17:41.327Z,22.30
2018-08-10T09:20:10.703Z,22.60
2018-08-10T09:22:39.341Z,22.80
2018-08-10T09:25:15.908Z,23.00
2018-08-10T09:27:44.555Z,23.20
2018-08-10T09:30:15.536Z,23.30
2018-08-10T09:32:44.126Z,23.40
2018-08-10T09:35:13.583Z,23.40
2018-08-10T09:37:42.324Z,23.40
2018-08-10T09:40:16.225Z,23.30
2018-08-10T09:42:45.589Z,23.40
2018-08-10T09:45:15.112Z,23.50
2018-08-10T09:47:44.853Z,23.60
2018-08-10T09:50:15.378Z,23.80
2018-08-10T09:52:56.970Z,23.90
2018-08-10T09:55:31.601Z,24.00
2018-08-10T09:58:01.712Z,24.00
2018-08-10T10:00:35.561Z,23.90
2018-08-10T10:03:09.503Z,24.00
2018-08-10T10:05:38.029Z,23.90
2018-08-10T10:08:06.769Z,24.00
2018-08-10T10:10:35.470Z,24.40
2018-08-10T10:13:04.188Z,24.60
2018-08-10T10:15:32.793Z,24.90
2018-08-10T10:18:01.414Z,25.30
2018-08-10T10:20:30.045Z,25.50
2018-08-10T10:22:58.736Z,25.60
2018-08-10T10:25:27.347Z,25.70
2018-08-10T10:27:56.010Z,26.00
2018-08-10T10:30:24.653Z,26.30
2018-08-10T10:32:53.296Z,26.30
2018-08-10T10:35:21.911Z,26.50
2018-08-10T10:37:50.543Z,26.60
2018-08-10T10:40:19.117Z,26.90
2018-08-10T10:42:47.794Z,26.90
2018-08-10T10:45:16.680Z,26.50
2018-08-10T10:47:46.511Z,26.60
2018-08-10T10:50:15.656Z,26.60
2018-08-10T10:52:44.272Z,26.50
2018-08-10T10:55:13.035Z,26.40
2018-08-10T10:57:42.160Z,25.90
2018-08-10T11:00:14.534Z,25.80
2018-08-10T11:02:43.242Z,25.60
2018-08-10T11:05:11.949Z,25.60
2018-08-10T11:07:40.558Z,25.70
2018-08-10T11:10:10.695Z,25.80
2018-08-10T11:12:39.592Z,25.80
2018-08-10T11:15:09.295Z,26.10
2018-08-10T11:17:38.173Z,26.30
2018-08-10T11:20:08.185Z,26.50
2018-08-10T11:22:36.993Z,26.90
2018-08-10T11:25:06.705Z,26.90
2018-08-10T11:27:35.387Z,27.00
2018-08-10T11:30:05.359Z,26.70
2018-08-10T11:32:34.329Z,26.40
2018-08-10T11:35:03.378Z,26.30
2018-08-10T11:37:32.349Z,26.50
2018-08-10T11:40:00.988Z,26.10
2018-08-10T11:42:29.532Z,25.70
2018-08-10T11:44:58.350Z,25.50
2018-08-10T11:47:26.941Z,25.60
2018-08-10T11:49:55.616Z,25.80
2018-08-10T11:52:24.238Z,26.00
2018-08-10T11:54:52.824Z,26.20
2018-08-10T11:57:21.470Z,26.10
2018-08-10T11:59:50.067Z,26.30
2018-08-10T12:02:18.689Z,26.50
2018-08-10T12:04:47.255Z,26.40
2018-08-10T12:07:15.832Z,26.40
2018-08-10T12:09:44.447Z,26.40
2018-08-10T12:12:13.072Z,26.60
2018-08-10T12:14:41.785Z,26.70
2018-08-10T12:17:10.406Z,26.60
2018-08-10T12:19:38.935Z,26.40
2018-08-10T12:22:07.588Z,26.30
2018-08-10T12:24:36.620Z,26.40
2018-08-10T12:27:05.475Z,26.40
2018-08-10T12:29:34.073Z,26.30
2018-08-10T12:32:02.731Z,26.30
2018-08-10T12:34:31.515Z,26.50
2018-08-10T12:37:00.119Z,26.60
2018-08-10T12:39:28.739Z,26.60
2018-08-10T12:41:57.301Z,26.30
2018-08-10T12:44:25.902Z,26.30
2018-08-10T12:46:54.409Z,26.30
2018-08-10T12:49:23.003Z,26.40
2018-08-10T12:51:51.682Z,26.30
2018-08-10T12:54:20.298Z,26.40
2018-08-10T12:56:48.907Z,26.50
2018-08-10T12:59:17.507Z,26.50
2018-08-10T13:01:46.150Z,26.50
2018-08-10T13:04:14.747Z,26.30
2018-08-10T13:06:43.287Z,26.30
2018-08-10T13:09:13.029Z,26.40
2018-08-10T13:11:41.676Z,26.70
2018-08-10T13:14:10.397Z,26.90
2018-08-10T13:16:38.981Z,26.80
2018-08-10T13:19:07.782Z,26.70
2018-08-10T13:21:36.422Z,26.80
2018-08-10T13:24:05.181Z,26.90
2018-08-10T13:26:33.833Z,26.90
2018-08-10T13:29:02.447Z,26.90
2018-08-10T13:31:31.102Z,26.50
2018-08-10T13:33:59.772Z,26.30
2018-08-10T13:36:28.417Z,26.50
2018-08-10T13:38:57.033Z,26.60
2018-08-10T13:41:28.948Z,26.70
2018-08-10T13:44:12.513Z,26.90
2018-08-10T13:46:43.214Z,27.20
2018-08-10T13:49:12.253Z,27.50
2018-08-10T13:51:40.871Z,27.80
2018-08-10T13:54:09.876Z,27.70
2018-08-10T13:56:38.691Z,27.30
2018-08-10T13:59:07.233Z,27.20
2018-08-10T14:01:35.823Z,26.90
2018-08-10T14:04:04.466Z,26.90
2018-08-10T14:06:33.252Z,26.80
2018-08-10T14:09:01.798Z,26.80
2018-08-10T14:11:30.441Z,26.60
2018-08-10T14:13:59.000Z,26.50
2018-08-10T14:16:27.607Z,26.50
2018-08-10T14:18:56.161Z,26.70
2018-08-10T14:21:24.796Z,26.50
2018-08-10T14:23:53.374Z,26.30
2018-08-10T14:26:22.073Z,26.20
2018-08-10T14:28:50.762Z,26.20
2018-08-10T14:31:19.333Z,26.20
2018-08-10T14:33:47.926Z,26.30
2018-08-10T14:36:16.585Z,26.40
2018-08-10T14:38:45.238Z,26.70
2018-08-10T14:41:14.173Z,26.70
2018-08-10T14:43:42.741Z,26.80
2018-08-10T14:46:11.320Z,27.00
2018-08-10T14:48:40.039Z,27.20
2018-08-10T14:51:08.696Z,27.00
2018-08-10T14:53:37.344Z,27.10
2018-08-10T14:56:06.475Z,27.00
2018-08-10T14:58:35.089Z,26.80
2018-08-10T15:01:03.872Z,26.70
2018-08-10T15:03:32.505Z,26.50
2018-08-10T15:06:01.149Z,26.40
2018-08-10T15:08:29.809Z,26.30
2018-08-10T15:10:58.373Z,26.20
2018-08-10T15:13:26.982Z,26.10
2018-08-10T15:15:55.631Z,26.10
2018-08-10T15:18:24.336Z,26.00
2018-08-10T15:20:53.135Z,26.00
2018-08-10T15:23:21.923Z,26.30
2018-08-10T15:25:50.523Z,26.40
2018-08-10T15:28:21.124Z,26.30
2018-08-10T15:30:49.833Z,26.30
2018-08-10T15:33:18.469Z,26.40
2018-08-10T15:35:47.078Z,26.60
2018-08-10T15:38:15.746Z,26.70
2018-08-10T15:40:44.353Z,26.70
2018-08-10T15:43:13.009Z,26.60
2018-08-10T15:45:41.623Z,26.70
2018-08-10T15:48:11.128Z,26.80
2018-08-10T15:50:39.811Z,26.80
2018-08-10T15:53:08.474Z,26.90
2018-08-10T15:55:37.042Z,27.00
2018-08-10T15:58:05.790Z,27.30
2018-08-10T16:00:34.409Z,27.50
2018-08-10T16:03:03.080Z,27.60
2018-08-10T16:05:31.609Z,27.90
2018-08-10T16:08:00.295Z,28.30
2018-08-10T16:10:28.910Z,28.80
2018-08-10T16:12:57.522Z,29.60
2018-08-10T16:15:26.155Z,30.20
2018-08-10T16:17:54.848Z,31.30
2018-08-10T16:20:23.557Z,32.40
2018-08-10T16:22:52.241Z,33.30
2018-08-10T16:25:20.924Z,33.40
2018-08-10T16:27:49.662Z,33.30
2018-08-10T16:30:18.412Z,32.50
2018-08-10T16:32:47.314Z,32.40
2018-08-10T16:35:16.420Z,32.70
2018-08-10T16:37:46.071Z,33.30
2018-08-10T16:40:15.945Z,32.80
2018-08-10T16:42:44.696Z,32.10
2018-08-10T16:45:14.001Z,32.30
2018-08-10T16:47:42.785Z,32.10
2018-08-10T16:50:15.369Z,32.20
2018-08-10T16:52:44.633Z,32.40
2018-08-10T16:55:15.100Z,32.60
2018-08-10T16:57:44.519Z,32.30
2018-08-10T17:00:19.350Z,31.90
2018-08-10T17:02:48.339Z,31.90
2018-08-10T17:05:17.086Z,31.70
2018-08-10T17:07:45.837Z,32.00
2018-08-10T17:10:14.521Z,31.80
2018-08-10T17:12:44.350Z,31.70
2018-08-10T17:15:15.585Z,31.60
2018-08-10T17:17:45.035Z,31.70
2018-08-10T17:20:14.158Z,31.60
2018-08-10T17:22:43.758Z,31.20
2018-08-10T17:25:14.257Z,30.60
2018-08-10T17:27:42.917Z,30.00
2018-08-10T17:30:13.445Z,29.60
2018-08-10T17:32:42.107Z,29.10
2018-08-10T17:35:12.011Z,28.70
2018-08-10T17:37:41.540Z,28.30
2018-08-10T17:40:10.595Z,28.20
2018-08-10T17:42:39.347Z,28.00
2018-08-10T17:45:12.253Z,27.70
2018-08-10T17:47:40.902Z,27.50
2018-08-10T17:50:12.719Z,26.70
2018-08-10T17:52:46.102Z,26.50
2018-08-10T17:55:15.800Z,26.30
2018-08-10T17:57:44.750Z,26.10
2018-08-10T18:00:16.047Z,25.80
2018-08-10T18:02:45.284Z,25.70
2018-08-10T18:05:15.190Z,25.40
2018-08-10T18:07:44.323Z,25.10
2018-08-10T18:10:14.192Z,24.80
2018-08-10T18:12:43.859Z,24.60
2018-08-10T18:15:15.916Z,24.20
2018-08-10T18:17:45.033Z,24.00
2018-08-10T18:20:16.593Z,23.50
2018-08-10T18:22:46.656Z,23.00
2018-08-10T18:25:16.348Z,22.70
2018-08-10T18:27:45.027Z,22.60
2018-08-10T18:30:15.871Z,22.40
2018-08-10T18:32:44.929Z,22.10
2018-08-10T18:35:13.619Z,21.90
2018-08-10T18:37:43.233Z,21.90
2018-08-10T18:40:13.328Z,21.80
2018-08-10T18:42:42.901Z,21.80
2018-08-10T18:45:14.154Z,21.80
2018-08-10T18:47:42.837Z,21.80
2018-08-10T18:50:13.128Z,21.80
2018-08-10T18:52:41.795Z,21.70
2018-08-10T18:55:11.989Z,21.70
2018-08-10T18:57:40.715Z,21.60
2018-08-10T19:00:16.052Z,21.50
2018-08-10T19:02:45.064Z,21.30
2018-08-10T19:05:14.609Z,21.10
2018-08-10T19:07:44.419Z,20.90
2018-08-10T19:10:15.122Z,20.80
2018-08-10T19:12:43.688Z,20.70
2018-08-10T19:15:13.217Z,20.60
2018-08-10T19:17:42.020Z,20.50
2018-08-10T19:20:11.524Z,20.60
2018-08-10T19:22:40.195Z,20.70
2018-08-10T19:25:10.577Z,20.70
2018-08-10T19:27:39.393Z,20.70
2018-08-10T19:30:10.183Z,20.70
2018-08-10T19:32:38.741Z,20.60
2018-08-10T19:35:07.868Z,20.60
2018-08-10T19:37:36.709Z,20.60
2018-08-10T19:40:07.371Z,20.60
2018-08-10T19:42:35.941Z,20.60
2018-08-10T19:45:05.948Z,20.60
2018-08-10T19:47:34.968Z,20.70
2018-08-10T19:50:03.777Z,20.70
2018-08-10T19:52:32.406Z,20.70
2018-08-10T19:55:01.182Z,20.70
2018-08-10T19:57:29.871Z,20.90
2018-08-10T19:59:58.522Z,20.90
2018-08-10T20:02:27.271Z,21.00
2018-08-10T20:04:56.006Z,21.00
2018-08-10T20:07:24.652Z,20.90
2018-08-10T20:09:53.339Z,20.90
2018-08-10T20:12:21.928Z,20.90
2018-08-10T20:14:50.572Z,20.70
2018-08-10T20:17:19.233Z,20.70
2018-08-10T20:19:47.853Z,20.60
2018-08-10T20:22:18.371Z,20.50
2018-08-10T20:24:48.536Z,20.40
2018-08-10T20:27:17.213Z,20.30
2018-08-10T20:29:45.820Z,20.30
2018-08-10T20:32:14.548Z,20.20
2018-08-10T20:34:43.161Z,20.20
2018-08-10T20:37:11.739Z,20.10
2018-08-10T20:39:40.399Z,20.00
2018-08-10T20:42:09.706Z,19.80
2018-08-10T20:44:38.347Z,19.80
2018-08-10T20:47:06.998Z,19.70
2018-08-10T20:49:35.696Z,19.70
2018-08-10T20:52:04.345Z,19.70
2018-08-10T20:54:32.980Z,19.60
2018-08-10T20:57:01.516Z,19.40
2018-08-10T20:59:30.229Z,19.30
2018-08-10T21:01:58.836Z,19.30
2018-08-10T21:04:27.436Z,19.30
2018-08-10T21:06:56.032Z,19.20
2018-08-10T21:09:24.596Z,19.20
2018-08-10T21:11:53.292Z,19.20
2018-08-10T21:14:21.869Z,19.10
2018-08-10T21:16:50.482Z,19.00
2018-08-10T21:19:19.016Z,19.00
2018-08-10T21:21:47.742Z,18.90
2018-08-10T21:24:16.300Z,18.80
2018-08-10T21:26:44.996Z,18.80
2018-08-10T21:29:13.548Z,18.70
2018-08-10T21:31:42.144Z,18.60
2018-08-10T21:34:10.724Z,18.60
2018-08-10T21:36:39.619Z,18.50
2018-08-10T21:39:10.533Z,18.50
2018-08-10T21:41:39.186Z,18.40
2018-08-10T21:44:07.999Z,18.30
2018-08-10T21:46:37.012Z,18.40
2018-08-10T21:49:05.848Z,18.40
2018-08-10T21:51:34.494Z,18.40
2018-08-10T21:54:03.128Z,18.30
2018-08-10T21:56:31.751Z,18.30
2018-08-10T21:59:00.436Z,18.20
2018-08-10T22:01:29.066Z,18.20
2018-08-10T22:03:57.614Z,18.20
2018-08-10T22:06:26.215Z,18.10
2018-08-10T22:08:54.798Z,18.00
2018-08-10T22:11:23.425Z,17.90
2018-08-10T22:13:57.204Z,17.80
2018-08-10T22:16:31.100Z,17.70
2018-08-10T22:19:04.963Z,17.70
2018-08-10T22:21:33.548Z,17.60
2018-08-10T22:24:03.181Z,17.50
2018-08-10T22:26:31.856Z,17.50
2018-08-10T22:29:00.513Z,17.40
2018-08-10T22:31:29.174Z,17.30
2018-08-10T22:33:57.835Z,17.20
2018-08-10T22:36:26.478Z,17.10
2018-08-10T22:38:54.994Z,17.20
2018-08-10T22:41:23.636Z,17.20
2018-08-10T22:43:52.241Z,17.20
2018-08-10T22:46:20.887Z,17.20
2018-08-10T22:48:49.539Z,17.20
2018-08-10T22:51:18.104Z,17.10
2018-08-10T22:53:46.649Z,17.10
2018-08-10T22:56:15.360Z,17.00
2018-08-10T22:58:43.881Z,16.90
2018-08-10T23:01:12.538Z,16.90
2018-08-10T23:03:41.116Z,16.90
2018-08-10T23:06:09.916Z,16.80
2018-08-10T23:08:38.716Z,16.70
2018-08-10T23:11:07.370Z,16.70
2018-08-10T23:13:36.100Z,16.70
2018-08-10T23:16:04.716Z,16.70
2018-08-10T23:18:33.377Z,16.60
2018-08-10T23:21:02.062Z,16.50
2018-08-10T23:23:30.677Z,16.50
2018-08-10T23:25:59.185Z,16.50
2018-08-10T23:28:27.864Z,16.60
2018-08-10T23:30:56.554Z,16.60
2018-08-10T23:33:25.144Z,16.40
2018-08-10T23:35:53.763Z,16.40
2018-08-10T23:38:22.412Z,16.40
2018-08-10T23:40:51.057Z,16.40
2018-08-10T23:43:19.691Z,16.40
2018-08-10T23:45:48.310Z,16.50
2018-08-10T23:48:16.953Z,16.60
2018-08-10T23:50:45.599Z,16.60
2018-08-10T23:53:14.220Z,16.60
2018-08-10T23:55:42.790Z,16.50
2018-08-10T23:58:11.597Z,16.50
